首页
METAR-TAF:

METAR-TAF

机场 :

安徒生, 南卡罗来纳州, 美国

纬度: 34-29-52N, 经度: 082-42-35W, 海拔: 238米

当前天气观测

该预报发布于32分钟前的18:56 UTC
静风
温度 7°C
湿度 76%
气压 1016 hPa
能見度: 16.1公里
阴天层高于1300英尺

METAR: KAND 151856Z AUTO 00000KT 10SM OVC013 07/03 A2999 RMK AO2 SLP155 T00670033

时间: 14:28 (19:28 UTC)

预报

该预报发布于1小时和58分钟前的17:30 UTC
预报有效从15日的 18点(UTC)到 16日的 18点(UTC)
风速10节,风向东北
能見度: 10公里
多云层高于1500英尺
从 16日的 0000点(UTC)
风速10节,风向西
能見度: 10公里
散云层高于5000英尺
从 16日的 1200点(UTC)
风速4节,风向西转西南
能見度: 10公里
天空无云

TAF: KAND 151730Z 1518/1618 04010KT P6SM BKN015 FM160000 26010KT P6SM SCT050 FM161200 25004KT P6SM SKC

超过4000个机场的气象观测和天气预报(METAR&TAF报告)。

可查询的气象台以黄色和红色小点在地图上表示。

将鼠标移到小点上方,可查看气象台名称。

然后点击查看天气观测和预报。

如需切换地图:点击带黑十字的绿色按钮放大地图;点击带横线的绿色按钮缩小地图;或者点击绿色箭头查看邻近地区的地图。


METAR-TAF: